createdAt,value
2023-01-17T00:02:22.453Z,94616.78
2023-01-17T00:05:11.510Z,94618.83
2023-01-17T00:08:00.442Z,94627.64
2023-01-17T00:10:30.428Z,94628.87
2023-01-17T00:13:03.955Z,94635.87
2023-01-17T00:15:33.710Z,94634.21
2023-01-17T00:18:03.619Z,94630.52
2023-01-17T00:20:52.842Z,94624.01
2023-01-17T00:23:42.855Z,94625.38
2023-01-17T00:26:17.221Z,94619.56
2023-01-17T00:28:47.203Z,94631.48
2023-01-17T00:31:16.384Z,94635.18
2023-01-17T00:33:45.650Z,94638.56
2023-01-17T00:36:15.302Z,94625.63
2023-01-17T00:38:44.916Z,94617.81
2023-01-17T00:41:15.270Z,94610.42
2023-01-17T00:44:04.472Z,94606.36
2023-01-17T00:46:54.102Z,94604.09
2023-01-17T00:49:42.623Z,94602.73
2023-01-17T00:52:32.164Z,94594.02
2023-01-17T00:55:20.935Z,94596.73
2023-01-17T00:58:10.100Z,94589.08
2023-01-17T01:00:59.717Z,94585.36
2023-01-17T01:03:49.242Z,94581.30
2023-01-17T01:06:38.637Z,94590.23
2023-01-17T01:09:28.183Z,94598.89
2023-01-17T01:12:16.358Z,94603.72
2023-01-17T01:15:05.399Z,94608.12
2023-01-17T01:17:53.523Z,94603.16
2023-01-17T01:20:43.188Z,94599.52
2023-01-17T01:23:33.882Z,94610.50
2023-01-17T01:26:25.948Z,94620.73
2023-01-17T01:29:15.378Z,94599.16
2023-01-17T01:32:05.115Z,94580.92
2023-01-17T01:34:34.490Z,94581.95
2023-01-17T01:37:04.158Z,94584.13
2023-01-17T01:39:33.791Z,94583.98
2023-01-17T01:42:03.091Z,94590.19
2023-01-17T01:44:49.552Z,94592.64
2023-01-17T01:47:41.161Z,94594.14
2023-01-17T01:50:11.075Z,94587.81
2023-01-17T01:52:43.917Z,94589.74
2023-01-17T01:55:15.159Z,94594.46
2023-01-17T01:57:46.424Z,94597.69
2023-01-17T02:00:20.323Z,94596.73
2023-01-17T02:02:50.426Z,94597.59
2023-01-17T02:05:21.456Z,94597.59
2023-01-17T02:07:52.846Z,94587.63
2023-01-17T02:10:22.496Z,94575.68
2023-01-17T02:12:53.254Z,94568.23
2023-01-17T02:15:30.602Z,94564.11
2023-01-17T02:18:38.548Z,94563.42
2023-01-17T02:21:34.422Z,94569.01
2023-01-17T02:24:21.726Z,94574.59
2023-01-17T02:26:51.208Z,94574.37
2023-01-17T02:29:40.996Z,94564.91
2023-01-17T02:32:26.764Z,94565.05
2023-01-17T02:35:12.822Z,94562.27
2023-01-17T02:37:42.240Z,94561.98
2023-01-17T02:40:18.724Z,94560.95
2023-01-17T02:42:53.895Z,94561.60
2023-01-17T02:45:23.657Z,94557.50
2023-01-17T02:47:52.861Z,94565.63
2023-01-17T02:50:24.367Z,94561.88
2023-01-17T02:53:02.255Z,94558.85
2023-01-17T02:55:41.967Z,94559.70
2023-01-17T02:58:29.941Z,94555.33
2023-01-17T03:01:16.436Z,94552.75
2023-01-17T03:03:56.907Z,94552.62
2023-01-17T03:06:44.061Z,94556.30
2023-01-17T03:09:15.612Z,94553.59
2023-01-17T03:11:45.005Z,94541.36
2023-01-17T03:14:14.398Z,94550.23
2023-01-17T03:16:44.576Z,94551.36
2023-01-17T03:19:15.139Z,94549.11
2023-01-17T03:21:44.433Z,94534.87
2023-01-17T03:24:13.804Z,94531.63
2023-01-17T03:26:45.448Z,94544.88
2023-01-17T03:29:15.232Z,94551.75
2023-01-17T03:31:47.124Z,94541.12
2023-01-17T03:34:16.459Z,94535.44
2023-01-17T03:36:45.673Z,94528.90
2023-01-17T03:39:15.000Z,94527.98
2023-01-17T03:41:44.338Z,94529.38
2023-01-17T03:44:13.646Z,94521.09
2023-01-17T03:46:43.928Z,94511.62
2023-01-17T03:49:13.435Z,94509.24
2023-01-17T03:51:42.825Z,94508.78
2023-01-17T03:54:14.020Z,94509.36
2023-01-17T03:56:43.292Z,94510.40
2023-01-17T03:59:13.248Z,94502.46
2023-01-17T04:01:43.161Z,94503.91
2023-01-17T04:04:12.670Z,94508.67
2023-01-17T04:06:42.373Z,94501.77
2023-01-17T04:09:11.735Z,94504.41
2023-01-17T04:11:41.165Z,94500.27
2023-01-17T04:14:10.609Z,94499.35
2023-01-17T04:16:39.968Z,94493.00
2023-01-17T04:19:13.116Z,94498.27
2023-01-17T04:21:42.579Z,94494.80
2023-01-17T04:24:11.919Z,94491.69
2023-01-17T04:26:43.011Z,94488.95
2023-01-17T04:29:12.350Z,94491.19
2023-01-17T04:31:41.749Z,94491.48
2023-01-17T04:34:11.153Z,94491.05
2023-01-17T04:36:40.420Z,94494.52
2023-01-17T04:39:09.720Z,94504.15
2023-01-17T04:41:39.062Z,94502.54
2023-01-17T04:44:08.456Z,94500.57
2023-01-17T04:46:37.634Z,94499.79
2023-01-17T04:49:08.925Z,94502.02
2023-01-17T04:51:37.415Z,94501.70
2023-01-17T04:54:07.135Z,94495.36
2023-01-17T04:56:38.911Z,94492.16
2023-01-17T04:59:08.444Z,94493.02
2023-01-17T05:01:37.772Z,94487.88
2023-01-17T05:04:07.304Z,94475.52
2023-01-17T05:06:36.765Z,94472.45
2023-01-17T05:09:07.257Z,94480.81
2023-01-17T05:11:36.664Z,94472.62
2023-01-17T05:14:06.503Z,94470.04
2023-01-17T05:16:36.115Z,94475.23
2023-01-17T05:19:05.721Z,94474.13
2023-01-17T05:21:35.512Z,94468.99
2023-01-17T05:24:04.212Z,94467.93
2023-01-17T05:26:35.316Z,94470.39
2023-01-17T05:29:06.985Z,94477.35
2023-01-17T05:31:36.572Z,94482.88
2023-01-17T05:34:05.918Z,94489.23
2023-01-17T05:36:35.574Z,94485.54
2023-01-17T05:39:04.228Z,94492.48
2023-01-17T05:41:32.849Z,94485.50
2023-01-17T05:44:01.955Z,94477.91
2023-01-17T05:46:31.410Z,94474.94
2023-01-17T05:49:01.221Z,94455.17
2023-01-17T05:51:30.910Z,94466.26
2023-01-17T05:54:00.511Z,94474.77
2023-01-17T05:56:29.064Z,94481.73
2023-01-17T05:58:57.931Z,94488.98
2023-01-17T06:01:29.560Z,94479.04
2023-01-17T06:03:59.192Z,94470.63
2023-01-17T06:06:28.720Z,94475.96
2023-01-17T06:08:58.381Z,94498.30
2023-01-17T06:11:28.239Z,94501.88
2023-01-17T06:13:57.989Z,94496.17
2023-01-17T06:16:27.292Z,94490.09
2023-01-17T06:18:56.780Z,94495.95
2023-01-17T06:21:26.384Z,94507.71
2023-01-17T06:23:55.899Z,94510.27
2023-01-17T06:26:25.646Z,94507.73
2023-01-17T06:28:55.318Z,94517.91
2023-01-17T06:31:25.172Z,94518.77
2023-01-17T06:33:55.698Z,94528.61
2023-01-17T06:36:25.322Z,94525.54
2023-01-17T06:38:54.955Z,94531.05
2023-01-17T06:41:26.263Z,94542.48
2023-01-17T06:43:56.378Z,94547.19
2023-01-17T06:46:26.313Z,94562.20
2023-01-17T06:48:57.943Z,94573.25
2023-01-17T06:51:28.342Z,94565.64
2023-01-17T06:53:58.320Z,94564.27
2023-01-17T06:56:27.578Z,94571.02
2023-01-17T06:58:57.269Z,94573.38
2023-01-17T07:01:26.891Z,94580.71
2023-01-17T07:03:56.781Z,94577.86
2023-01-17T07:06:29.197Z,94582.19
2023-01-17T07:09:01.510Z,94584.63
2023-01-17T07:11:32.322Z,94591.08
2023-01-17T07:14:01.771Z,94579.85
2023-01-17T07:16:31.440Z,94570.71
2023-01-17T07:19:00.792Z,94558.15
2023-01-17T07:21:30.462Z,94560.56
2023-01-17T07:23:59.728Z,94559.35
2023-01-17T07:26:29.438Z,94551.20
2023-01-17T07:28:58.890Z,94549.87
2023-01-17T07:31:28.633Z,94550.60
2023-01-17T07:33:57.270Z,94548.25
2023-01-17T07:36:44.183Z,94551.65
2023-01-17T07:39:13.639Z,94558.41
2023-01-17T07:41:43.303Z,94565.03
2023-01-17T07:44:14.763Z,94579.59
2023-01-17T07:46:44.488Z,94573.34
2023-01-17T07:49:15.033Z,94579.59
2023-01-17T07:51:44.338Z,94574.61
2023-01-17T07:54:12.955Z,94583.61
2023-01-17T07:56:46.175Z,94591.30
2023-01-17T07:59:16.254Z,94585.55
2023-01-17T08:01:45.820Z,94580.88
2023-01-17T08:04:17.168Z,94576.83
2023-01-17T08:06:52.613Z,94575.05
2023-01-17T08:09:21.858Z,94575.63
2023-01-17T08:11:51.216Z,94583.52
2023-01-17T08:14:20.571Z,94580.27
2023-01-17T08:16:49.950Z,94557.42
2023-01-17T08:19:18.852Z,94553.95
2023-01-17T08:21:48.604Z,94554.04
2023-01-17T08:24:17.825Z,94553.64
2023-01-17T08:26:47.125Z,94558.11
2023-01-17T08:29:16.801Z,94552.07
2023-01-17T08:31:46.626Z,94560.40
2023-01-17T08:34:16.609Z,94567.56
2023-01-17T08:36:45.953Z,94556.09
2023-01-17T08:39:15.171Z,94562.36
2023-01-17T08:41:45.218Z,94562.09
2023-01-17T08:44:16.356Z,94557.45
2023-01-17T08:46:45.986Z,94538.05
2023-01-17T08:49:15.200Z,94547.78
2023-01-17T08:51:44.583Z,94554.77
2023-01-17T08:54:16.081Z,94544.60
2023-01-17T08:56:47.929Z,94524.24
2023-01-17T08:59:17.251Z,94524.92
2023-01-17T09:01:47.072Z,94542.89
2023-01-17T09:04:16.710Z,94550.33
2023-01-17T09:06:48.646Z,94548.33
2023-01-17T09:09:18.150Z,94558.45
2023-01-17T09:11:50.789Z,94559.89
2023-01-17T09:14:20.021Z,94586.40
2023-01-17T09:16:49.717Z,94590.02
2023-01-17T09:19:19.418Z,94596.23
2023-01-17T09:21:48.133Z,94608.85
2023-01-17T09:24:17.866Z,94602.05
2023-01-17T09:26:47.618Z,94596.18
2023-01-17T09:29:19.199Z,94573.66
2023-01-17T09:31:48.612Z,94586.44
2023-01-17T09:34:19.393Z,94586.67
2023-01-17T09:36:49.278Z,94589.88
2023-01-17T09:39:19.210Z,94605.83
2023-01-17T09:42:03.943Z,94617.13
2023-01-17T09:44:45.534Z,94615.80
2023-01-17T09:47:27.846Z,94619.36
2023-01-17T09:50:02.441Z,94622.55
2023-01-17T09:52:32.939Z,94614.02
2023-01-17T09:55:03.120Z,94612.27
2023-01-17T09:57:58.329Z,94612.72
2023-01-17T10:00:40.727Z,94617.88
2023-01-17T10:03:27.428Z,94610.34
2023-01-17T10:06:14.865Z,94600.06
2023-01-17T10:08:44.561Z,94600.52
2023-01-17T10:11:19.809Z,94598.56
2023-01-17T10:14:06.175Z,94587.13
2023-01-17T10:16:42.075Z,94590.11
2023-01-17T10:19:14.977Z,94588.17
2023-01-17T10:22:11.148Z,94591.98
2023-01-17T10:25:00.636Z,94590.20
2023-01-17T10:27:34.753Z,94598.94
2023-01-17T10:30:14.713Z,94605.81
2023-01-17T10:32:49.866Z,94595.60
2023-01-17T10:35:23.502Z,94590.27
2023-01-17T10:37:58.749Z,94587.52
2023-01-17T10:40:43.567Z,94572.02
2023-01-17T10:43:52.137Z,94563.56
2023-01-17T10:46:31.881Z,94559.63
2023-01-17T10:49:04.070Z,94566.09
2023-01-17T10:51:50.239Z,94558.48
2023-01-17T10:54:25.236Z,94563.64
2023-01-17T10:56:54.646Z,94569.37
2023-01-17T10:59:34.804Z,94558.38
2023-01-17T11:02:07.316Z,94544.64
2023-01-17T11:04:41.566Z,94554.69
2023-01-17T11:07:19.240Z,94564.54
2023-01-17T11:09:50.306Z,94572.30
2023-01-17T11:12:18.833Z,94578.95
2023-01-17T11:15:16.263Z,94580.23
2023-01-17T11:17:53.385Z,94571.05
2023-01-17T11:20:43.647Z,94572.60
2023-01-17T11:23:17.137Z,94586.70
2023-01-17T11:25:53.561Z,94583.84
2023-01-17T11:28:26.514Z,94579.51
2023-01-17T11:31:00.020Z,94592.48
2023-01-17T11:33:45.907Z,94597.11
2023-01-17T11:36:29.393Z,94574.88
2023-01-17T11:39:00.358Z,94580.77
2023-01-17T11:41:34.329Z,94604.90
2023-01-17T11:44:21.054Z,94616.46
2023-01-17T11:46:50.304Z,94614.79
2023-01-17T11:49:26.479Z,94619.14
2023-01-17T11:51:56.825Z,94619.06
2023-01-17T11:54:33.911Z,94622.77
2023-01-17T11:57:04.321Z,94626.02
2023-01-17T11:59:40.428Z,94615.69
2023-01-17T12:02:32.154Z,94594.03
2023-01-17T12:05:29.340Z,94595.63
2023-01-17T12:08:16.734Z,94602.27
2023-01-17T12:10:45.506Z,94601.05
2023-01-17T12:13:42.716Z,94601.77
2023-01-17T12:16:33.654Z,94602.02
2023-01-17T12:19:11.454Z,94594.70
2023-01-17T12:21:43.479Z,94593.90
2023-01-17T12:24:25.122Z,94595.06
2023-01-17T12:27:13.267Z,94590.14
2023-01-17T12:29:53.953Z,94596.31
2023-01-17T12:32:50.348Z,94592.54
2023-01-17T12:35:23.676Z,94589.70
2023-01-17T12:38:05.210Z,94595.99
2023-01-17T12:40:50.674Z,94589.66
2023-01-17T12:43:26.120Z,94590.05
2023-01-17T12:45:56.758Z,94585.66
2023-01-17T12:48:28.861Z,94586.80
2023-01-17T12:50:58.808Z,94591.73
2023-01-17T12:53:34.778Z,94586.48
2023-01-17T12:56:06.479Z,94585.15
2023-01-17T12:58:41.270Z,94587.86
2023-01-17T13:01:18.314Z,94582.65
2023-01-17T13:04:08.221Z,94586.80
2023-01-17T13:06:57.713Z,94594.90
2023-01-17T13:09:40.882Z,94607.84
2023-01-17T13:12:14.844Z,94610.66
2023-01-17T13:14:47.459Z,94619.76
2023-01-17T13:17:32.247Z,94628.11
2023-01-17T13:20:07.819Z,94626.02
2023-01-17T13:22:38.886Z,94629.36
2023-01-17T13:25:27.881Z,94629.09
2023-01-17T13:28:03.534Z,94630.42
2023-01-17T13:30:50.958Z,94628.13
2023-01-17T13:33:42.472Z,94634.13
2023-01-17T13:36:17.673Z,94629.01
2023-01-17T13:38:55.805Z,94611.48
2023-01-17T13:41:34.099Z,94604.11
2023-01-17T13:44:24.514Z,94597.55
2023-01-17T13:47:08.496Z,94588.11
2023-01-17T13:49:45.499Z,94590.99
2023-01-17T13:52:20.982Z,94602.27
2023-01-17T13:54:54.899Z,94608.18
2023-01-17T13:57:29.595Z,94597.75
2023-01-17T14:00:16.579Z,94592.88
2023-01-17T14:02:47.153Z,94601.06
2023-01-17T14:05:31.708Z,94609.34
2023-01-17T14:08:13.899Z,94612.83
2023-01-17T14:10:45.741Z,94620.05
2023-01-17T14:13:34.438Z,94623.02
2023-01-17T14:16:08.811Z,94624.27
2023-01-17T14:18:42.343Z,94625.94
2023-01-17T14:21:13.786Z,94625.54
2023-01-17T14:23:53.976Z,94625.56
2023-01-17T14:26:23.350Z,94628.57
2023-01-17T14:28:54.303Z,94631.95
2023-01-17T14:31:24.641Z,94630.23
2023-01-17T14:33:54.765Z,94630.13
2023-01-17T14:36:27.456Z,94631.48
2023-01-17T14:38:56.980Z,94632.00
2023-01-17T14:41:28.097Z,94629.13
2023-01-17T14:44:01.370Z,94633.20
2023-01-17T14:46:32.747Z,94629.62
2023-01-17T14:49:04.563Z,94634.52
2023-01-17T14:51:38.841Z,94634.83
2023-01-17T14:54:19.901Z,94640.89
2023-01-17T14:56:49.236Z,94636.98
2023-01-17T14:59:22.434Z,94639.76
2023-01-17T15:02:07.259Z,94647.71
2023-01-17T15:04:40.084Z,94642.42
2023-01-17T15:07:14.295Z,94635.22
2023-01-17T15:09:44.869Z,94632.54
2023-01-17T15:12:17.072Z,94629.09
2023-01-17T15:14:46.985Z,94639.94
2023-01-17T15:17:21.204Z,94643.43
2023-01-17T15:19:54.386Z,94641.25
2023-01-17T15:22:26.263Z,94643.83
2023-01-17T15:24:56.480Z,94645.00
2023-01-17T15:27:26.370Z,94649.08
2023-01-17T15:29:59.567Z,94652.39
2023-01-17T15:32:31.587Z,94654.72
2023-01-17T15:35:03.407Z,94654.20
2023-01-17T15:37:35.192Z,94639.43
2023-01-17T15:40:13.935Z,94626.81
2023-01-17T15:42:44.248Z,94636.05
2023-01-17T15:45:17.694Z,94637.36
2023-01-17T15:47:49.651Z,94621.77
2023-01-17T15:50:30.925Z,94610.52
2023-01-17T15:53:05.512Z,94625.05
2023-01-17T15:55:38.873Z,94644.93
2023-01-17T15:58:27.658Z,94657.23
2023-01-17T16:00:59.397Z,94653.64
2023-01-17T16:03:30.431Z,94652.72
2023-01-17T16:06:03.320Z,94656.09
2023-01-17T16:08:40.175Z,94653.36
2023-01-17T16:11:12.215Z,94653.08
2023-01-17T16:13:43.773Z,94658.45
2023-01-17T16:16:22.489Z,94650.07
2023-01-17T16:18:58.063Z,94643.89
2023-01-17T16:21:29.472Z,94638.36
2023-01-17T16:24:00.219Z,94621.26
2023-01-17T16:26:29.844Z,94608.06
2023-01-17T16:28:59.222Z,94613.21
2023-01-17T16:31:29.117Z,94612.74
2023-01-17T16:33:58.646Z,94603.33
2023-01-17T16:36:28.544Z,94604.95
2023-01-17T16:38:57.154Z,94603.27
2023-01-17T16:41:26.934Z,94594.86
2023-01-17T16:44:01.012Z,94584.95
2023-01-17T16:46:30.787Z,94579.89
2023-01-17T16:49:00.403Z,94591.93
2023-01-17T16:51:30.387Z,94592.78
2023-01-17T16:54:00.885Z,94587.79
2023-01-17T16:56:30.780Z,94581.95
2023-01-17T16:59:00.474Z,94571.59
2023-01-17T17:01:30.398Z,94570.98
2023-01-17T17:04:00.507Z,94568.10
2023-01-17T17:06:31.676Z,94563.86
2023-01-17T17:09:01.388Z,94559.41
2023-01-17T17:11:31.012Z,94563.74
2023-01-17T17:14:02.337Z,94561.30
2023-01-17T17:16:33.167Z,94559.84
2023-01-17T17:19:04.049Z,94563.90
2023-01-17T17:21:35.431Z,94560.50
2023-01-17T17:24:05.343Z,94556.64
2023-01-17T17:26:36.343Z,94551.73
2023-01-17T17:29:06.822Z,94550.30
2023-01-17T17:31:36.513Z,94560.14
2023-01-17T17:34:07.793Z,94566.82
2023-01-17T17:36:37.929Z,94566.23
2023-01-17T17:39:09.791Z,94551.60
2023-01-17T17:41:41.901Z,94545.61
2023-01-17T17:44:12.187Z,94544.81
2023-01-17T17:46:42.574Z,94537.56
2023-01-17T17:49:11.953Z,94529.00
2023-01-17T17:51:41.502Z,94525.35
2023-01-17T17:54:14.225Z,94521.63
2023-01-17T17:56:46.963Z,94511.69
2023-01-17T17:59:18.789Z,94513.71
2023-01-17T18:01:48.482Z,94507.80
2023-01-17T18:04:18.260Z,94502.13
2023-01-17T18:06:47.685Z,94503.74
2023-01-17T18:09:17.267Z,94496.66
2023-01-17T18:11:46.077Z,94489.96
2023-01-17T18:14:15.805Z,94484.12
2023-01-17T18:16:45.321Z,94482.42
2023-01-17T18:19:16.044Z,94480.98
2023-01-17T18:21:46.538Z,94476.75
2023-01-17T18:24:16.784Z,94468.27
2023-01-17T18:26:47.337Z,94469.71
2023-01-17T18:29:18.242Z,94455.62
2023-01-17T18:31:48.404Z,94448.73
2023-01-17T18:34:24.424Z,94441.58
2023-01-17T18:36:54.174Z,94428.14
2023-01-17T18:39:25.698Z,94418.16
2023-01-17T18:41:54.780Z,94420.23
2023-01-17T18:44:27.715Z,94412.91
2023-01-17T18:47:02.647Z,94405.45
2023-01-17T18:49:34.079Z,94403.86
2023-01-17T18:52:02.818Z,94408.16
2023-01-17T18:54:32.475Z,94403.23
2023-01-17T18:57:02.311Z,94393.01
2023-01-17T18:59:31.961Z,94388.08
2023-01-17T19:02:01.503Z,94387.92
2023-01-17T19:04:34.312Z,94375.56
2023-01-17T19:07:04.278Z,94367.54
2023-01-17T19:09:34.068Z,94362.32
2023-01-17T19:12:03.554Z,94335.51
2023-01-17T19:14:33.208Z,94337.54
2023-01-17T19:17:02.701Z,94334.86
2023-01-17T19:19:32.425Z,94337.98
2023-01-17T19:22:02.235Z,94333.19
2023-01-17T19:24:31.802Z,94328.95
2023-01-17T19:27:03.065Z,94329.70
2023-01-17T19:29:32.756Z,94329.48
2023-01-17T19:32:02.671Z,94333.20
2023-01-17T19:34:31.886Z,94334.64
2023-01-17T19:37:01.737Z,94336.70
2023-01-17T19:39:32.001Z,94341.95
2023-01-17T19:42:01.746Z,94341.04
2023-01-17T19:44:31.727Z,94334.52
2023-01-17T19:47:01.924Z,94326.88
2023-01-17T19:49:32.494Z,94313.56
2023-01-17T19:52:02.118Z,94318.44
2023-01-17T19:54:30.674Z,94312.30
2023-01-17T19:57:00.396Z,94309.73
2023-01-17T19:59:30.097Z,94300.05
2023-01-17T20:02:01.558Z,94286.05
2023-01-17T20:04:31.565Z,94282.39
2023-01-17T20:07:01.224Z,94280.42
2023-01-17T20:09:31.031Z,94287.14
2023-01-17T20:12:01.330Z,94281.89
2023-01-17T20:14:30.610Z,94278.69
2023-01-17T20:17:00.266Z,94276.73
2023-01-17T20:19:30.280Z,94270.61
2023-01-17T20:21:59.931Z,94276.57
2023-01-17T20:24:29.566Z,94282.80
2023-01-17T20:26:58.735Z,94273.01
2023-01-17T20:29:30.486Z,94264.08
2023-01-17T20:32:00.171Z,94261.91
2023-01-17T20:34:29.831Z,94264.93
2023-01-17T20:36:59.847Z,94262.87
2023-01-17T20:39:29.882Z,94265.25
2023-01-17T20:41:59.796Z,94258.91
2023-01-17T20:44:29.501Z,94259.89
2023-01-17T20:46:58.049Z,94256.25
2023-01-17T20:49:27.925Z,94254.19
2023-01-17T20:51:58.325Z,94245.83
2023-01-17T20:54:28.215Z,94231.75
2023-01-17T20:56:57.494Z,94238.42
2023-01-17T20:59:27.279Z,94235.27
2023-01-17T21:01:57.170Z,94231.02
2023-01-17T21:04:27.197Z,94222.69
2023-01-17T21:06:57.862Z,94217.61
2023-01-17T21:09:27.491Z,94218.20
2023-01-17T21:12:01.732Z,94215.54
2023-01-17T21:14:31.806Z,94207.91
2023-01-17T21:17:01.599Z,94197.40
2023-01-17T21:19:31.402Z,94205.17
2023-01-17T21:22:01.916Z,94204.35
2023-01-17T21:24:31.888Z,94213.06
2023-01-17T21:27:01.539Z,94211.38
2023-01-17T21:29:32.607Z,94216.04
2023-01-17T21:32:02.378Z,94215.59
2023-01-17T21:34:33.923Z,94209.73
2023-01-17T21:37:03.727Z,94215.14
2023-01-17T21:39:32.253Z,94220.80
2023-01-17T21:42:02.001Z,94226.36
2023-01-17T21:44:36.626Z,94227.84
2023-01-17T21:47:07.014Z,94228.70
2023-01-17T21:49:36.694Z,94222.20
2023-01-17T21:52:06.191Z,94215.11
2023-01-17T21:54:55.589Z,94211.05
2023-01-17T21:57:44.118Z,94193.19
2023-01-17T22:00:16.969Z,94188.92
2023-01-17T22:02:47.609Z,94176.84
2023-01-17T22:05:18.505Z,94169.67
2023-01-17T22:08:07.756Z,94164.25
2023-01-17T22:10:45.301Z,94155.38
2023-01-17T22:13:16.391Z,94165.62
2023-01-17T22:15:47.717Z,94158.73
2023-01-17T22:18:17.100Z,94156.52
2023-01-17T22:20:46.440Z,94162.58
2023-01-17T22:23:15.775Z,94158.59
2023-01-17T22:25:44.388Z,94156.70
2023-01-17T22:28:14.079Z,94166.20
2023-01-17T22:30:43.448Z,94162.07
2023-01-17T22:33:12.926Z,94152.30
2023-01-17T22:35:42.419Z,94148.23
2023-01-17T22:38:11.860Z,94154.10
2023-01-17T22:40:41.110Z,94159.64
2023-01-17T22:43:11.986Z,94157.48
2023-01-17T22:45:41.300Z,94162.11
2023-01-17T22:48:11.014Z,94167.33
2023-01-17T22:50:40.402Z,94167.52
2023-01-17T22:53:11.896Z,94171.94
2023-01-17T22:55:41.647Z,94158.84
2023-01-17T22:58:10.953Z,94153.96
2023-01-17T23:00:40.713Z,94145.97
2023-01-17T23:03:10.599Z,94145.20
2023-01-17T23:05:47.238Z,94146.26
2023-01-17T23:08:16.571Z,94147.33
2023-01-17T23:11:05.267Z,94143.43
2023-01-17T23:13:34.679Z,94143.68
2023-01-17T23:16:26.110Z,94138.23
2023-01-17T23:19:14.635Z,94136.25
2023-01-17T23:22:03.605Z,94139.74
2023-01-17T23:24:33.545Z,94148.04
2023-01-17T23:27:24.433Z,94138.71
2023-01-17T23:29:54.160Z,94145.42
2023-01-17T23:32:23.531Z,94141.88
2023-01-17T23:34:52.867Z,94145.72
2023-01-17T23:37:43.968Z,94148.09
2023-01-17T23:40:13.372Z,94141.35
2023-01-17T23:43:02.691Z,94141.83
2023-01-17T23:45:34.408Z,94145.52
2023-01-17T23:48:06.055Z,94144.63
2023-01-17T23:50:35.896Z,94133.05
2023-01-17T23:53:08.699Z,94120.58
2023-01-17T23:55:39.595Z,94121.21
2023-01-17T23:58:10.648Z,94120.64
